createdAt,value
2022-10-17T00:01:41.540Z,101803.22
2022-10-17T00:04:25.027Z,101811.28
2022-10-17T00:07:08.422Z,101813.28
2022-10-17T00:09:51.793Z,101814.63
2022-10-17T00:12:35.302Z,101826.31
2022-10-17T00:15:20.967Z,101820.50
2022-10-17T00:18:04.975Z,101826.47
2022-10-17T00:20:48.389Z,101814.22
2022-10-17T00:23:31.863Z,101805.53
2022-10-17T00:26:16.490Z,101795.31
2022-10-17T00:29:00.118Z,101791.56
2022-10-17T00:31:43.633Z,101800.22
2022-10-17T00:34:30.921Z,101793.56
2022-10-17T00:37:14.486Z,101803.84
2022-10-17T00:39:58.199Z,101804.28
2022-10-17T00:42:41.619Z,101808.84
2022-10-17T00:45:29.627Z,101812.63
2022-10-17T00:48:14.534Z,101794.53
2022-10-17T00:50:57.927Z,101794.88
2022-10-17T00:53:42.760Z,101802.44
2022-10-17T00:56:26.809Z,101807.91
2022-10-17T00:59:12.366Z,101809.88
2022-10-17T01:02:15.166Z,101804.69
2022-10-17T01:04:59.616Z,101810.00
2022-10-17T01:07:45.710Z,101811.78
2022-10-17T01:10:55.932Z,101813.09
2022-10-17T01:14:01.600Z,101818.56
2022-10-17T01:17:15.888Z,101813.38
2022-10-17T01:20:41.270Z,101801.81
2022-10-17T01:24:13.211Z,101797.53
2022-10-17T01:27:49.357Z,101797.91
2022-10-17T01:30:46.061Z,101785.00
2022-10-17T01:34:03.156Z,101789.22
2022-10-17T01:36:49.514Z,101782.09
2022-10-17T01:39:47.773Z,101782.25
2022-10-17T01:42:59.363Z,101777.09
2022-10-17T01:46:17.497Z,101781.38
2022-10-17T01:49:05.300Z,101775.78
2022-10-17T01:52:02.813Z,101769.81
2022-10-17T01:54:58.323Z,101777.53
2022-10-17T01:57:51.938Z,101768.66
2022-10-17T02:00:37.982Z,101774.00
2022-10-17T02:03:22.270Z,101775.44
2022-10-17T02:06:06.285Z,101771.41
2022-10-17T02:08:51.935Z,101781.72
2022-10-17T02:11:36.699Z,101781.56
2022-10-17T02:15:01.633Z,101781.44
2022-10-17T02:18:16.092Z,101783.84
2022-10-17T02:21:29.658Z,101786.88
2022-10-17T02:25:05.073Z,101785.78
2022-10-17T02:28:30.463Z,101782.56
2022-10-17T02:31:22.611Z,101775.94
2022-10-17T02:34:22.659Z,101779.66
2022-10-17T02:37:13.020Z,101782.88
2022-10-17T02:40:00.595Z,101775.63
2022-10-17T02:42:46.212Z,101773.53
2022-10-17T02:45:35.945Z,101769.16
2022-10-17T02:48:48.267Z,101772.72
2022-10-17T02:52:05.630Z,101770.59
2022-10-17T02:54:59.803Z,101766.09
2022-10-17T02:58:16.623Z,101766.09
2022-10-17T03:01:01.260Z,101766.56
2022-10-17T03:03:45.656Z,101765.44
2022-10-17T03:06:29.135Z,101762.22
2022-10-17T03:09:12.862Z,101762.09
2022-10-17T03:11:57.841Z,101759.19
2022-10-17T03:14:41.306Z,101764.03
2022-10-17T03:17:25.100Z,101766.28
2022-10-17T03:20:09.699Z,101760.75
2022-10-17T03:22:53.138Z,101764.28
2022-10-17T03:25:36.572Z,101769.31
2022-10-17T03:28:19.963Z,101763.50
2022-10-17T03:31:11.550Z,101759.63
2022-10-17T03:33:55.703Z,101761.25
2022-10-17T03:36:39.138Z,101763.34
2022-10-17T03:39:22.974Z,101748.00
2022-10-17T03:42:06.362Z,101747.69
2022-10-17T03:44:49.896Z,101752.38
2022-10-17T03:47:33.661Z,101746.22
2022-10-17T03:50:18.225Z,101755.91
2022-10-17T03:53:01.737Z,101751.81
2022-10-17T03:55:45.860Z,101749.09
2022-10-17T03:58:29.252Z,101745.72
2022-10-17T04:01:16.767Z,101747.41
2022-10-17T04:04:00.522Z,101743.88
2022-10-17T04:06:47.531Z,101747.50
2022-10-17T04:09:31.497Z,101751.66
2022-10-17T04:12:20.441Z,101741.13
2022-10-17T04:15:04.452Z,101737.50
2022-10-17T04:17:48.680Z,101735.38
2022-10-17T04:20:35.376Z,101721.81
2022-10-17T04:23:19.078Z,101723.72
2022-10-17T04:26:04.559Z,101731.19
2022-10-17T04:28:48.084Z,101726.38
2022-10-17T04:31:31.930Z,101727.56
2022-10-17T04:34:22.118Z,101739.97
2022-10-17T04:37:06.089Z,101743.66
2022-10-17T04:39:50.384Z,101738.28
2022-10-17T04:42:33.811Z,101739.06
2022-10-17T04:45:17.473Z,101735.19
2022-10-17T04:48:02.691Z,101734.06
2022-10-17T04:51:01.128Z,101726.63
2022-10-17T04:53:51.629Z,101730.97
2022-10-17T04:56:35.159Z,101734.59
2022-10-17T04:59:19.032Z,101731.56
2022-10-17T05:02:05.872Z,101739.97
2022-10-17T05:04:50.620Z,101733.44
2022-10-17T05:07:34.396Z,101729.91
2022-10-17T05:10:27.142Z,101727.47
2022-10-17T05:13:12.208Z,101731.03
2022-10-17T05:16:00.515Z,101738.00
2022-10-17T05:18:43.965Z,101732.81
2022-10-17T05:21:30.275Z,101738.84
2022-10-17T05:24:15.478Z,101745.13
2022-10-17T05:26:58.931Z,101747.44
2022-10-17T05:29:42.492Z,101742.41
2022-10-17T05:32:32.904Z,101739.66
2022-10-17T05:35:16.354Z,101742.09
2022-10-17T05:38:00.654Z,101738.47
2022-10-17T05:40:44.628Z,101739.16
2022-10-17T05:43:31.606Z,101729.97
2022-10-17T05:46:15.364Z,101738.69
2022-10-17T05:48:58.816Z,101732.38
2022-10-17T05:51:43.010Z,101734.47
2022-10-17T05:54:27.472Z,101740.88
2022-10-17T05:57:10.971Z,101746.88
2022-10-17T05:59:55.644Z,101743.19
2022-10-17T06:02:39.244Z,101754.50
2022-10-17T06:05:23.383Z,101751.91
2022-10-17T06:08:07.181Z,101750.78
2022-10-17T06:10:52.868Z,101754.00
2022-10-17T06:13:36.337Z,101765.81
2022-10-17T06:16:27.166Z,101762.56
2022-10-17T06:19:11.655Z,101777.06
2022-10-17T06:21:55.198Z,101774.78
2022-10-17T06:24:40.167Z,101781.25
2022-10-17T06:27:23.695Z,101789.16
2022-10-17T06:30:07.975Z,101787.22
2022-10-17T06:32:53.273Z,101787.72
2022-10-17T06:35:38.012Z,101797.38
2022-10-17T06:38:23.257Z,101790.91
2022-10-17T06:41:14.597Z,101794.13
2022-10-17T06:43:58.020Z,101792.69
2022-10-17T06:47:02.218Z,101798.03
2022-10-17T06:49:45.751Z,101799.13
2022-10-17T06:52:38.272Z,101805.72
2022-10-17T06:55:44.819Z,101803.78
2022-10-17T06:58:41.328Z,101807.28
2022-10-17T07:01:43.080Z,101809.19
2022-10-17T07:04:29.871Z,101812.78
2022-10-17T07:07:13.286Z,101811.66
2022-10-17T07:09:56.729Z,101806.59
2022-10-17T07:12:41.021Z,101810.16
2022-10-17T07:15:24.430Z,101810.47
2022-10-17T07:18:07.974Z,101808.06
2022-10-17T07:20:56.006Z,101816.88
2022-10-17T07:23:40.027Z,101817.06
2022-10-17T07:26:23.777Z,101812.63
2022-10-17T07:29:07.656Z,101822.28
2022-10-17T07:32:04.055Z,101821.53
2022-10-17T07:34:47.505Z,101824.50
2022-10-17T07:37:33.369Z,101818.50
2022-10-17T07:40:17.346Z,101823.56
2022-10-17T07:43:00.797Z,101823.97
2022-10-17T07:45:44.629Z,101825.16
2022-10-17T07:48:28.772Z,101827.81
2022-10-17T07:51:12.867Z,101834.31
2022-10-17T07:53:56.276Z,101829.34
2022-10-17T07:56:39.922Z,101832.13
2022-10-17T07:59:24.430Z,101825.72
2022-10-17T08:02:23.102Z,101828.50
2022-10-17T08:05:06.956Z,101819.94
2022-10-17T08:07:50.464Z,101824.56
2022-10-17T08:10:33.862Z,101826.97
2022-10-17T08:13:17.295Z,101834.66
2022-10-17T08:16:08.335Z,101832.06
2022-10-17T08:18:51.933Z,101832.78
2022-10-17T08:21:35.811Z,101836.00
2022-10-17T08:24:19.165Z,101835.91
2022-10-17T08:27:03.986Z,101829.16
2022-10-17T08:29:48.846Z,101828.84
2022-10-17T08:32:32.519Z,101835.50
2022-10-17T08:35:16.244Z,101831.47
2022-10-17T08:38:01.791Z,101834.66
2022-10-17T08:40:49.598Z,101824.28
2022-10-17T08:44:20.943Z,101823.03
2022-10-17T08:47:15.692Z,101823.75
2022-10-17T08:50:05.704Z,101813.03
2022-10-17T08:53:02.887Z,101812.22
2022-10-17T08:55:50.048Z,101807.38
2022-10-17T08:58:36.825Z,101809.25
2022-10-17T09:02:04.069Z,101800.47
2022-10-17T09:05:34.838Z,101811.72
2022-10-17T09:08:47.086Z,101815.16
2022-10-17T09:12:12.657Z,101805.72
2022-10-17T09:15:22.877Z,101814.34
2022-10-17T09:18:31.823Z,101821.75
2022-10-17T09:21:27.044Z,101817.56
2022-10-17T09:25:00.585Z,101824.06
2022-10-17T09:27:52.613Z,101815.66
2022-10-17T09:30:45.510Z,101819.75
2022-10-17T09:33:56.117Z,101825.16
2022-10-17T09:36:40.746Z,101810.25
2022-10-17T09:39:26.695Z,101811.81
2022-10-17T09:42:15.482Z,101818.88
2022-10-17T09:45:10.859Z,101816.84
2022-10-17T09:48:33.861Z,101817.22
2022-10-17T09:51:25.648Z,101814.09
2022-10-17T09:54:29.719Z,101807.31
2022-10-17T09:57:15.589Z,101809.91
2022-10-17T10:00:05.019Z,101808.84
2022-10-17T10:03:21.173Z,101810.88
2022-10-17T10:06:17.618Z,101799.78
2022-10-17T10:09:03.520Z,101794.06
2022-10-17T10:11:56.594Z,101812.50
2022-10-17T10:14:40.449Z,101807.63
2022-10-17T10:17:42.622Z,101793.34
2022-10-17T10:20:33.459Z,101803.97
2022-10-17T10:23:21.397Z,101804.97
2022-10-17T10:26:24.789Z,101813.19
2022-10-17T10:29:38.506Z,101801.34
2022-10-17T10:32:37.722Z,101798.31
2022-10-17T10:35:37.309Z,101803.72
2022-10-17T10:38:21.779Z,101805.25
2022-10-17T10:41:09.523Z,101797.06
2022-10-17T10:43:56.198Z,101792.13
2022-10-17T10:46:39.563Z,101798.06
2022-10-17T10:49:32.028Z,101791.75
2022-10-17T10:52:47.811Z,101796.16
2022-10-17T10:55:44.017Z,101789.94
2022-10-17T10:59:08.923Z,101793.94
2022-10-17T11:02:10.084Z,101794.03
2022-10-17T11:05:04.143Z,101792.47
2022-10-17T11:08:04.834Z,101790.50
2022-10-17T11:11:19.504Z,101783.75
2022-10-17T11:14:13.119Z,101788.94
2022-10-17T11:17:33.176Z,101776.56
2022-10-17T11:20:43.838Z,101772.97
2022-10-17T11:24:13.783Z,101765.00
2022-10-17T11:27:03.107Z,101773.00
2022-10-17T11:29:46.546Z,101765.81
2022-10-17T11:32:55.105Z,101755.47
2022-10-17T11:35:48.222Z,101757.84
2022-10-17T11:38:58.909Z,101754.69
2022-10-17T11:41:55.478Z,101755.88
2022-10-17T11:44:43.167Z,101756.66
2022-10-17T11:47:43.870Z,101764.63
2022-10-17T11:53:53.845Z,101754.28
2022-10-17T11:56:59.239Z,101752.28
2022-10-17T12:00:40.771Z,101754.28
2022-10-17T12:04:21.285Z,101747.50
2022-10-17T12:07:22.290Z,101743.47
2022-10-17T12:10:56.002Z,101743.50
2022-10-17T12:13:41.727Z,101748.16
2022-10-17T12:16:25.062Z,101749.75
2022-10-17T12:19:19.410Z,101741.34
2022-10-17T12:22:26.164Z,101734.97
2022-10-17T12:25:23.196Z,101741.44
2022-10-17T12:28:06.371Z,101731.78
2022-10-17T12:31:15.857Z,101737.53
2022-10-17T12:34:03.191Z,101731.53
2022-10-17T12:36:46.886Z,101737.03
2022-10-17T12:39:30.160Z,101745.00
2022-10-17T12:42:45.275Z,101746.59
2022-10-17T12:45:55.565Z,101730.59
2022-10-17T12:48:38.897Z,101732.13
2022-10-17T12:51:35.338Z,101731.16
2022-10-17T12:54:19.794Z,101731.00
2022-10-17T12:57:03.499Z,101729.38
2022-10-17T12:59:48.758Z,101733.44
2022-10-17T13:02:34.071Z,101738.94
2022-10-17T13:05:32.991Z,101731.00
2022-10-17T13:08:44.116Z,101732.50
2022-10-17T13:11:33.751Z,101717.84
2022-10-17T13:14:22.554Z,101719.81
2022-10-17T13:17:21.372Z,101716.69
2022-10-17T13:20:28.923Z,101712.28
2022-10-17T13:23:26.734Z,101721.50
2022-10-17T13:26:22.350Z,101724.28
2022-10-17T13:29:13.260Z,101719.13
2022-10-17T13:32:01.572Z,101720.31
2022-10-17T13:34:44.936Z,101719.47
2022-10-17T13:37:28.363Z,101722.28
2022-10-17T13:40:49.721Z,101725.81
2022-10-17T13:43:32.263Z,101725.34
2022-10-17T13:46:40.564Z,101718.59
2022-10-17T13:49:43.041Z,101716.22
2022-10-17T13:52:32.130Z,101715.84
2022-10-17T13:55:20.064Z,101713.81
2022-10-17T13:58:16.551Z,101719.41
2022-10-17T14:01:00.103Z,101727.50
2022-10-17T14:03:49.759Z,101734.19
2022-10-17T14:06:46.396Z,101733.03
2022-10-17T14:09:34.531Z,101734.63
2022-10-17T14:12:21.502Z,101724.63
2022-10-17T14:15:10.595Z,101730.25
2022-10-17T14:18:07.722Z,101737.81
2022-10-17T14:24:21.916Z,101730.59
2022-10-17T14:27:52.833Z,101731.91
2022-10-17T14:30:56.711Z,101731.00
2022-10-17T14:33:50.831Z,101736.28
2022-10-17T14:36:42.063Z,101737.47
2022-10-17T14:39:28.035Z,101735.09
2022-10-17T14:42:23.177Z,101732.31
2022-10-17T14:45:14.647Z,101740.25
2022-10-17T14:48:11.648Z,101741.09
2022-10-17T14:51:15.808Z,101734.34
2022-10-17T14:54:05.406Z,101744.69
2022-10-17T14:56:53.106Z,101745.91
2022-10-17T14:59:53.381Z,101743.53
2022-10-17T15:02:37.942Z,101744.31
2022-10-17T15:05:23.444Z,101747.91
2022-10-17T15:08:15.482Z,101748.31
2022-10-17T15:10:58.867Z,101748.31
2022-10-17T15:13:45.534Z,101753.47
2022-10-17T15:16:35.171Z,101753.06
2022-10-17T15:19:18.552Z,101750.66
2022-10-17T15:22:01.940Z,101755.47
2022-10-17T15:24:46.389Z,101751.09
2022-10-17T15:27:32.604Z,101753.47
2022-10-17T15:30:34.537Z,101753.06
2022-10-17T15:33:17.943Z,101749.09
2022-10-17T15:36:01.359Z,101752.28
2022-10-17T15:38:44.805Z,101754.25
2022-10-17T15:41:31.018Z,101751.47
2022-10-17T15:44:14.618Z,101761.41
2022-10-17T15:46:58.032Z,101759.41
2022-10-17T15:49:41.419Z,101768.03
2022-10-17T15:52:26.269Z,101759.22
2022-10-17T15:55:11.229Z,101769.16
2022-10-17T15:57:54.934Z,101759.19
2022-10-17T16:00:38.348Z,101763.09
2022-10-17T16:06:25.602Z,101767.66
2022-10-17T16:09:09.257Z,101770.78
2022-10-17T16:11:52.740Z,101767.66
2022-10-17T16:14:36.210Z,101765.94
2022-10-17T16:17:19.656Z,101764.59
2022-10-17T16:20:03.159Z,101768.16
2022-10-17T16:22:47.918Z,101769.28
2022-10-17T16:25:32.387Z,101773.09
2022-10-17T16:28:15.852Z,101764.34
2022-10-17T16:30:59.542Z,101781.25
2022-10-17T16:33:42.985Z,101774.59
2022-10-17T16:36:26.893Z,101778.59
2022-10-17T16:39:10.328Z,101782.63
2022-10-17T16:41:56.262Z,101796.06
2022-10-17T16:44:41.863Z,101775.44
2022-10-17T16:47:25.256Z,101787.09
2022-10-17T16:50:11.687Z,101786.28
2022-10-17T16:52:55.115Z,101783.78
2022-10-17T16:55:38.489Z,101778.72
2022-10-17T16:58:21.851Z,101774.41
2022-10-17T17:01:10.127Z,101784.31
2022-10-17T17:03:55.509Z,101789.34
2022-10-17T17:06:39.004Z,101780.19
2022-10-17T17:09:22.433Z,101781.50
2022-10-17T17:12:06.014Z,101786.75
2022-10-17T17:14:49.386Z,101788.22
2022-10-17T17:17:49.280Z,101783.66
2022-10-17T17:20:34.966Z,101789.03
2022-10-17T17:23:18.387Z,101789.84
2022-10-17T17:26:14.901Z,101790.81
2022-10-17T17:29:00.786Z,101784.84
2022-10-17T17:31:44.410Z,101787.94
2022-10-17T17:34:27.915Z,101779.13
2022-10-17T17:37:11.478Z,101783.41
2022-10-17T17:39:54.855Z,101790.34
2022-10-17T17:42:38.329Z,101783.22
2022-10-17T17:45:21.713Z,101789.09
2022-10-17T17:48:05.205Z,101789.47
2022-10-17T17:50:48.958Z,101787.06
2022-10-17T17:53:33.372Z,101789.97
2022-10-17T17:56:22.346Z,101794.94
2022-10-17T17:59:05.783Z,101796.84
2022-10-17T18:01:49.403Z,101801.09
2022-10-17T18:04:32.865Z,101800.03
2022-10-17T18:07:16.358Z,101794.94
2022-10-17T18:10:00.625Z,101804.97
2022-10-17T18:12:44.198Z,101799.44
2022-10-17T18:15:27.714Z,101804.03
2022-10-17T18:18:11.140Z,101810.84
2022-10-17T18:20:54.981Z,101824.28
2022-10-17T18:23:43.164Z,101825.63
2022-10-17T18:26:27.055Z,101827.25
2022-10-17T18:29:12.794Z,101823.06
2022-10-17T18:31:56.256Z,101832.38
2022-10-17T18:34:39.827Z,101838.13
2022-10-17T18:37:23.303Z,101836.50
2022-10-17T18:40:07.670Z,101825.34
2022-10-17T18:42:51.059Z,101839.06
2022-10-17T18:45:34.484Z,101832.06
2022-10-17T18:48:17.860Z,101832.03
2022-10-17T18:51:04.452Z,101831.56
2022-10-17T18:53:51.936Z,101831.06
2022-10-17T18:56:35.403Z,101840.13
2022-10-17T18:59:20.340Z,101844.28
2022-10-17T19:02:03.881Z,101847.03
2022-10-17T19:07:33.848Z,101855.69
2022-10-17T19:10:17.363Z,101853.56
2022-10-17T19:13:01.167Z,101861.00
2022-10-17T19:15:44.592Z,101863.25
2022-10-17T19:18:28.012Z,101863.94
2022-10-17T19:21:12.038Z,101867.88
2022-10-17T19:24:00.201Z,101875.06
2022-10-17T19:26:46.010Z,101883.31
2022-10-17T19:29:33.175Z,101883.09
2022-10-17T19:32:19.185Z,101880.03
2022-10-17T19:35:06.505Z,101881.31
2022-10-17T19:37:49.939Z,101890.91
2022-10-17T19:40:35.133Z,101885.44
2022-10-17T19:43:18.952Z,101874.56
2022-10-17T19:46:07.318Z,101880.25
2022-10-17T19:48:52.599Z,101885.56
2022-10-17T19:51:36.146Z,101879.38
2022-10-17T19:54:20.402Z,101882.19
2022-10-17T19:57:08.034Z,101890.06
2022-10-17T19:59:56.046Z,101882.81
2022-10-17T20:02:39.686Z,101891.44
2022-10-17T20:05:27.303Z,101892.44
2022-10-17T20:08:11.733Z,101886.13
2022-10-17T20:10:55.183Z,101891.72
2022-10-17T20:13:38.874Z,101894.28
2022-10-17T20:16:30.436Z,101898.69
2022-10-17T20:19:13.925Z,101896.59
2022-10-17T20:21:57.334Z,101901.66
2022-10-17T20:24:40.810Z,101904.00
2022-10-17T20:27:27.573Z,101899.00
2022-10-17T20:30:11.317Z,101904.66
2022-10-17T20:32:55.807Z,101911.72
2022-10-17T20:38:46.783Z,101913.22
2022-10-17T20:41:30.185Z,101916.28
2022-10-17T20:44:14.359Z,101917.63
2022-10-17T20:47:02.147Z,101926.00
2022-10-17T20:49:46.200Z,101926.09
2022-10-17T20:52:29.612Z,101934.25
2022-10-17T20:55:12.957Z,101938.06
2022-10-17T20:57:56.590Z,101944.72
2022-10-17T21:00:43.259Z,101944.16
2022-10-17T21:03:26.794Z,101942.66
2022-10-17T21:06:11.058Z,101940.50
2022-10-17T21:08:55.960Z,101950.50
2022-10-17T21:11:39.568Z,101941.19
2022-10-17T21:14:25.105Z,101947.63
2022-10-17T21:17:08.608Z,101941.63
2022-10-17T21:19:52.018Z,101953.38
2022-10-17T21:22:35.444Z,101952.66
2022-10-17T21:25:18.866Z,101955.09
2022-10-17T21:28:02.250Z,101958.31
2022-10-17T21:30:45.803Z,101957.19
2022-10-17T21:33:29.154Z,101952.34
2022-10-17T21:36:14.023Z,101963.94
2022-10-17T21:38:58.287Z,101960.72
2022-10-17T21:41:43.131Z,101955.78
2022-10-17T21:44:27.743Z,101960.72
2022-10-17T21:47:11.132Z,101951.75
2022-10-17T21:49:54.529Z,101952.25
2022-10-17T21:52:37.936Z,101966.47
2022-10-17T21:55:21.437Z,101963.22
2022-10-17T21:58:05.179Z,101965.56
2022-10-17T22:00:48.642Z,101965.44
2022-10-17T22:03:34.797Z,101968.78
2022-10-17T22:09:26.667Z,101978.88
2022-10-17T22:12:10.174Z,101988.78
2022-10-17T22:14:53.556Z,101976.63
2022-10-17T22:17:36.948Z,101986.72
2022-10-17T22:20:20.379Z,101981.75
2022-10-17T22:23:03.958Z,101981.69
2022-10-17T22:25:59.017Z,101992.50
2022-10-17T22:28:42.596Z,101993.47
2022-10-17T22:31:26.562Z,101994.41
2022-10-17T22:34:14.469Z,101985.56
2022-10-17T22:36:57.851Z,101993.25
2022-10-17T22:39:41.222Z,101988.25
2022-10-17T22:42:24.675Z,101994.69
2022-10-17T22:45:08.599Z,101986.63
2022-10-17T22:47:53.849Z,101994.16
2022-10-17T22:50:41.594Z,101996.25
2022-10-17T22:53:26.899Z,101991.31
2022-10-17T22:56:14.098Z,101991.50
2022-10-17T22:58:57.548Z,101988.66
2022-10-17T23:01:41.114Z,101983.91
2022-10-17T23:04:24.554Z,101989.81
2022-10-17T23:07:12.608Z,101997.75
2022-10-17T23:09:55.970Z,101990.91
2022-10-17T23:12:39.405Z,101992.56
2022-10-17T23:15:25.392Z,101995.59
2022-10-17T23:18:10.135Z,101995.31
2022-10-17T23:20:54.122Z,101993.78
2022-10-17T23:23:37.596Z,101995.94
2022-10-17T23:26:20.989Z,102002.66
2022-10-17T23:29:04.433Z,102001.31
2022-10-17T23:31:48.935Z,102001.31
2022-10-17T23:34:32.321Z,102005.47
2022-10-17T23:37:15.775Z,101994.53
2022-10-17T23:39:59.185Z,102003.09
2022-10-17T23:42:42.920Z,101999.50
2022-10-17T23:45:26.367Z,102004.28
2022-10-17T23:48:09.940Z,102006.53
2022-10-17T23:50:54.086Z,102005.84
2022-10-17T23:53:39.098Z,101997.63
2022-10-17T23:56:22.550Z,102001.94
2022-10-17T23:59:05.965Z,101999.53
